Time;durP1;ratioP1;P1;durP2;ratioP2;P2;SDS_P1;SDS_P2;PMS_P1;PMS_P2;Temp;Humidity;BMP_temperature;BMP_pressure;BME280_temperature;BME280_humidity;BME280_pressure;Samples;Min_cycle;Max_cycle;Signal;HPM_P1;HPM_P2
2020/12/29 00:01:37;;;;;;;96.95;48.60;;;;;;;1.26;58.07;101801.50;4973669;28;20034;-87
2020/12/29 00:04:05;;;;;;;116.55;54.72;;;;;;;1.17;59.54;101803.34;5008830;28;20502;-87
2020/12/29 00:06:32;;;;;;;128.73;55.30;;;;;;;1.74;59.73;101942.00;4974847;28;20038;-88
2020/12/29 00:09:00;;;;;;;111.93;53.10;;;;;;;1.43;60.90;101909.75;4988971;28;20070;-87
2020/12/29 00:11:27;;;;;;;125.82;62.08;;;;;;;0.78;61.61;101782.81;4988850;28;20173;-87
2020/12/29 00:13:54;;;;;;;126.90;67.38;;;;;;;1.29;61.79;101842.97;4972787;28;20030;-88
2020/12/29 00:16:24;;;;;;;122.05;58.50;;;;;;;1.80;62.42;101917.81;5005160;28;20511;-88
2020/12/29 00:18:51;;;;;;;143.70;67.97;;;;;;;0.64;62.99;101727.00;5005473;28;20045;-87
2020/12/29 00:21:20;;;;;;;112.10;59.10;;;;;;;1.41;63.84;101854.47;4973802;28;20038;-86
2020/12/29 00:23:49;;;;;;;130.45;63.72;;;;;;;1.91;63.94;101970.25;5005358;28;20030;-88
2020/12/29 00:26:17;;;;;;;139.15;71.50;;;;;;;1.98;63.75;101965.03;4972709;28;20034;-87
2020/12/29 00:28:44;;;;;;;151.45;68.30;;;;;;;2.02;63.80;101941.81;5005372;28;20480;-87
2020/12/29 00:31:20;;;;;;;140.10;73.68;;;;;;;2.04;63.42;101952.59;5004680;28;20066;-87
2020/12/29 00:33:50;;;;;;;140.50;71.15;;;;;;;1.03;63.72;101807.53;4972230;28;20133;-85
2020/12/29 00:36:18;;;;;;;128.57;64.60;;;;;;;1.42;62.98;101834.34;4972685;28;20039;-88
2020/12/29 00:38:45;;;;;;;132.40;65.50;;;;;;;1.79;62.96;101878.72;4972595;28;20046;-84
2020/12/29 00:41:13;;;;;;;123.13;62.55;;;;;;;2.28;62.03;101973.69;5004801;28;20031;-85
2020/12/29 00:43:41;;;;;;;131.15;66.90;;;;;;;0.86;62.32;101774.69;4972308;28;20484;-87
2020/12/29 00:46:16;;;;;;;116.20;56.58;;;;;;;1.97;61.96;101938.69;4973450;28;20057;-87
2020/12/29 00:48:43;;;;;;;132.40;67.38;;;;;;;1.52;62.86;101869.72;4971864;28;20125;-88
2020/12/29 00:51:15;;;;;;;118.95;58.17;;;;;;;1.56;62.45;101883.91;4973074;28;20041;-87
2020/12/29 00:53:42;;;;;;;138.70;72.60;;;;;;;2.02;62.65;101963.66;4972128;28;20030;-86
2020/12/29 00:56:10;;;;;;;138.70;63.08;;;;;;;0.64;62.95;101746.94;4971987;28;20054;-87
2020/12/29 00:58:38;;;;;;;128.52;58.17;;;;;;;1.08;63.06;101848.81;4973385;28;20023;-87
2020/12/29 01:01:06;;;;;;;138.68;67.25;;;;;;;1.55;63.31;101969.53;4972193;28;20026;-88
2020/12/29 01:03:33;;;;;;;142.75;62.72;;;;;;;1.88;62.90;101986.13;4973472;28;20034;-88
2020/12/29 01:06:00;;;;;;;129.82;63.90;;;;;;;1.01;63.44;101885.94;4971898;28;20408;-89
2020/12/29 01:08:27;;;;;;;125.75;62.90;;;;;;;0.81;63.80;101824.25;4971728;28;20443;-89
2020/12/29 01:10:58;;;;;;;125.80;66.78;;;;;;;1.55;63.84;101947.69;4971783;28;20034;-87
2020/12/29 01:13:28;;;;;;;135.82;65.97;;;;;;;1.04;63.46;101825.59;5004294;28;20483;-86
2020/12/29 01:15:55;;;;;;;142.63;61.17;;;;;;;1.55;64.45;101931.31;4971598;28;20031;-88
2020/12/29 01:18:22;;;;;;;136.15;72.68;;;;;;;0.82;64.08;101795.09;4973326;28;20476;-88
2020/12/29 01:20:49;;;;;;;139.32;66.15;;;;;;;0.69;63.60;101800.97;4988103;28;20042;-87
2020/12/29 01:23:17;;;;;;;108.93;55.53;;;;;;;0.03;63.84;101686.88;4972857;28;20507;-88
2020/12/29 01:25:44;;;;;;;132.88;63.88;;;;;;;1.17;64.06;101846.97;4989794;28;20400;-87
2020/12/29 01:28:12;;;;;;;131.57;68.47;;;;;;;0.08;63.39;101681.81;4974130;28;20082;-87
2020/12/29 01:30:39;;;;;;;139.93;61.10;;;;;;;1.97;63.90;102007.00;4971828;28;20089;-88
2020/12/29 01:33:07;;;;;;;124.93;59.83;;;;;;;1.17;65.17;101869.69;4971669;28;20105;-88
2020/12/29 01:35:34;;;;;;;130.35;66.03;;;;;;;1.19;66.09;101915.91;4971788;28;20026;-88
2020/12/29 01:38:03;;;;;;;140.38;69.53;;;;;;;1.45;65.85;101887.75;4972988;28;20093;-86
2020/12/29 01:40:41;;;;;;;125.82;67.85;;;;;;;1.44;67.49;101926.97;4971894;28;20030;-87
2020/12/29 01:43:08;;;;;;;152.23;69.35;;;;;;;1.20;67.02;101891.16;4976256;28;20034;-89
2020/12/29 01:45:39;;;;;;;130.70;65.65;;;;;;;1.09;67.45;101889.56;4988592;28;20034;-88
2020/12/29 01:48:06;;;;;;;134.13;67.07;;;;;;;0.90;67.45;101836.06;4987572;28;20031;-87
2020/12/29 01:50:33;;;;;;;128.07;63.45;;;;;;;1.78;67.25;101959.78;4987556;28;20085;-87
2020/12/29 01:53:01;;;;;;;134.50;61.75;;;;;;;0.75;68.05;101804.94;5003383;28;20045;-89
2020/12/29 01:55:35;;;;;;;134.68;65.97;;;;;;;0.37;67.61;101742.47;4971274;28;20041;-89
2020/12/29 01:58:02;;;;;;;138.07;64.65;;;;;;;1.63;68.20;101951.34;5003819;28;20077;-85
2020/12/29 02:00:29;;;;;;;131.57;67.18;;;;;;;0.65;68.60;101821.41;4970985;28;20026;-86
2020/12/29 02:03:00;;;;;;;159.93;68.50;;;;;;;0.43;68.63;101784.59;5004460;28;20030;-88
2020/12/29 02:05:29;;;;;;;;;;;;;;;1.68;68.75;101930.88;4972145;28;20039;-86
2020/12/29 02:07:57;;;;;;;130.68;68.28;;;;;;;0.89;68.89;101823.44;4972677;28;20008;-87
2020/12/29 02:10:25;;;;;;;139.45;68.47;;;;;;;0.48;68.49;101739.47;4971026;28;20035;-87
2020/12/29 02:12:52;;;;;;;141.75;67.78;;;;;;;1.63;68.93;101950.47;4987243;28;20034;-87
2020/12/29 02:15:20;;;;;;;147.13;73.88;;;;;;;-0.12;69.88;101667.50;5003574;28;20499;-87
2020/12/29 02:17:47;;;;;;;153.02;66.30;;;;;;;1.40;69.19;101906.47;4970144;28;20039;-86
2020/12/29 02:20:13;;;;;;;141.65;68.70;;;;;;;0.30;69.39;101728.63;4986825;28;20090;-87
2020/12/29 02:22:41;;;;;;;166.13;72.18;;;;;;;0.92;69.43;101828.59;4972951;28;20149;-88
2020/12/29 02:25:10;;;;;;;142.05;71.25;;;;;;;0.56;69.49;101768.69;4975301;28;20206;-89
2020/12/29 02:27:49;;;;;;;139.57;69.97;;;;;;;0.41;69.51;101787.44;4975216;28;20094;-89
2020/12/29 02:30:18;;;;;;;146.55;76.30;;;;;;;0.62;69.00;101751.72;5007722;28;20297;-87
2020/12/29 02:32:45;;;;;;;113.78;57.25;;;;;;;0.62;68.90;101727.16;4976129;28;20033;-85
2020/12/29 02:35:15;;;;;;;153.68;70.80;;;;;;;1.31;68.74;101816.38;4991069;28;20027;-86
2020/12/29 02:37:42;;;;;;;142.52;63.25;;;;;;;0.18;68.29;101613.63;4974677;28;20023;-85
2020/12/29 02:40:09;;;;;;;139.27;69.75;;;;;;;0.97;69.56;101764.53;4975833;28;20030;-88
2020/12/29 02:42:36;;;;;;;143.90;69.32;;;;;;;0.92;68.66;101741.34;4976180;28;20530;-86
2020/12/29 02:45:07;;;;;;;130.13;64.18;;;;;;;0.28;68.32;101616.25;5007736;28;20038;-86
2020/12/29 02:47:34;;;;;;;133.80;66.13;;;;;;;1.18;67.83;101767.72;4977826;28;20034;-85
2020/12/29 02:50:01;;;;;;;144.43;69.10;;;;;;;1.04;68.73;101743.75;5008527;28;20062;-86
2020/12/29 02:52:28;;;;;;;114.40;58.58;;;;;;;0.11;67.29;101602.53;5006854;28;20035;-88
2020/12/29 02:54:55;;;;;;;135.32;59.92;;;;;;;0.60;68.49;101726.47;4974257;28;20027;-88
2020/12/29 02:57:21;;;;;;;124.75;61.15;;;;;;;0.86;69.08;101760.19;4990550;28;20035;-87
2020/12/29 02:59:48;;;;;;;139.65;69.70;;;;;;;1.56;68.39;101818.38;4974302;28;20034;-85
2020/12/29 03:02:15;;;;;;;118.53;59.50;;;;;;;0.48;67.77;101673.25;5006944;28;20385;-87
2020/12/29 03:04:42;;;;;;;138.52;62.50;;;;;;;1.27;67.63;101808.69;4976412;28;20137;-87
2020/12/29 03:07:11;;;;;;;129.77;64.72;;;;;;;1.59;67.54;101878.09;5007225;28;20074;-88
2020/12/29 03:09:38;;;;;;;111.22;57.92;;;;;;;1.30;67.47;101814.66;4975565;28;20027;-87
2020/12/29 03:12:05;;;;;;;135.50;66.68;;;;;;;1.04;67.58;101790.13;5006759;28;20035;-86
2020/12/29 03:14:32;;;;;;;124.63;59.85;;;;;;;-0.15;67.98;101641.47;4975156;28;20038;-89
2020/12/29 03:17:10;;;;;;;129.13;61.10;;;;;;;-0.35;67.60;101585.50;4975421;28;20073;-89
2020/12/29 03:19:37;;;;;;;116.05;55.17;;;;;;;0.63;66.95;101690.72;4974223;28;20038;-89
2020/12/29 03:22:04;;;;;;;130.05;60.65;;;;;;;0.80;67.70;101775.31;5005258;28;20137;-88
2020/12/29 03:24:31;;;;;;;133.80;64.90;;;;;;;0.85;67.32;101753.91;4990458;28;20506;-87
2020/12/29 03:26:57;;;;;;;113.88;53.35;;;;;;;0.13;66.59;101638.59;4974158;28;20035;-87
2020/12/29 03:29:24;;;;;;;129.68;61.03;;;;;;;0.40;67.38;101702.16;4989979;28;20023;-88
2020/12/29 03:31:51;;;;;;;123.68;62.08;;;;;;;1.05;67.07;101816.38;4975255;28;20030;-88
2020/12/29 03:34:27;;;;;;;143.88;65.72;;;;;;;-0.39;67.62;101594.97;4973354;28;20035;-88
2020/12/29 03:36:54;;;;;;;125.32;57.85;;;;;;;1.42;66.67;101845.25;4990453;28;20395;-90
2020/12/29 03:39:21;;;;;;;115.07;59.72;;;;;;;0.47;67.09;101736.94;4973771;28;20027;-89
2020/12/29 03:41:48;;;;;;;133.63;66.63;;;;;;;0.61;65.96;101738.22;4975191;28;20023;-85
2020/12/29 03:44:15;;;;;;;121.15;56.38;;;;;;;0.22;67.17;101690.41;4990245;28;20483;-87
2020/12/29 03:46:42;;;;;;;125.05;58.05;;;;;;;0.16;66.92;101710.13;4977552;28;20030;-88
2020/12/29 03:49:09;;;;;;;109.72;59.63;;;;;;;1.18;67.05;101873.28;5011567;28;20031;-88
2020/12/29 03:51:36;;;;;;;127.53;64.53;;;;;;;-0.06;66.06;101649.72;5007826;28;20058;-89
2020/12/29 03:54:02;;;;;;;125.13;63.25;;;;;;;0.40;65.92;101732.13;4974604;28;20038;-87
2020/12/29 03:56:29;;;;;;;114.47;61.00;;;;;;;0.78;66.32;101831.91;4975909;28;20495;-88
2020/12/29 03:58:56;;;;;;;112.47;56.88;;;;;;;0.76;66.22;101793.00;4974974;28;20110;-89
2020/12/29 04:01:24;;;;;;;102.85;53.15;;;;;;;0.67;65.30;101771.13;4989529;28;20038;-88
2020/12/29 04:03:51;;;;;;;93.78;50.08;;;;;;;1.04;66.12;101839.22;4973611;28;20498;-89
2020/12/29 04:06:18;;;;;;;134.15;61.08;;;;;;;1.25;66.63;101882.50;4976250;28;20027;-86
2020/12/29 04:08:45;;;;;;;117.38;55.67;;;;;;;-0.09;66.38;101660.88;4975736;28;20065;-87
2020/12/29 04:11:14;;;;;;;113.55;57.60;;;;;;;1.41;66.54;101883.66;4974677;28;20062;-86
2020/12/29 04:13:41;;;;;;;111.78;57.35;;;;;;;1.35;65.89;101838.75;4973828;28;20027;-85
2020/12/29 04:16:10;;;;;;;74.05;37.92;;;;;;;1.26;65.39;101826.06;4972765;28;20035;-87
2020/12/29 04:18:38;;;;;;;93.82;44.13;;;;;;;0.36;66.77;101702.63;5005901;28;20026;-88
2020/12/29 04:21:05;;;;;;;97.00;46.33;;;;;;;0.84;67.02;101782.19;4972742;28;20117;-88
2020/12/29 04:23:32;;;;;;;107.30;53.45;;;;;;;-0.16;66.40;101563.50;5005766;28;20047;-87
2020/12/29 04:25:59;;;;;;;87.25;43.63;;;;;;;1.55;68.67;101857.63;4973804;28;20370;-87
2020/12/29 04:28:26;;;;;;;116.03;54.50;;;;;;;1.27;72.49;101857.78;4974579;28;20404;-88
2020/12/29 04:30:53;;;;;;;113.78;57.10;;;;;;;-0.08;74.08;101654.44;4973398;28;20073;-89
2020/12/29 04:33:19;;;;;;;130.43;62.17;;;;;;;1.05;75.12;101862.75;4988937;28;20031;-88
2020/12/29 04:35:46;;;;;;;123.93;66.13;;;;;;;0.61;75.51;101770.94;4972923;28;20066;-87
2020/12/29 04:38:13;;;;;;;143.48;66.07;;;;;;;0.17;75.89;101680.00;5005269;28;20023;-88
2020/12/29 04:40:40;;;;;;;133.82;67.47;;;;;;;0.18;76.97;101738.91;4972662;28;20038;-88
2020/12/29 04:43:07;;;;;;;142.10;74.82;;;;;;;0.05;78.63;101739.31;4972482;28;20484;-87
2020/12/29 04:45:34;;;;;;;147.85;73.38;;;;;;;0.89;78.58;101872.53;4973427;28;20035;-88
2020/12/29 04:48:01;;;;;;;145.00;73.38;;;;;;;-0.12;78.18;101721.09;4973934;28;20034;-88
2020/12/29 04:50:31;;;;;;;154.85;75.75;;;;;;;0.70;78.49;101870.00;4973758;28;20109;-88
2020/12/29 04:52:58;;;;;;;115.78;60.65;;;;;;;-0.32;79.79;101718.53;4972729;28;20114;-88
2020/12/29 04:55:30;;;;;;;163.18;78.63;;;;;;;-1.30;81.24;101611.19;4973537;28;20031;-89
2020/12/29 04:58:00;;;;;;;148.55;82.28;;;;;;;0.37;81.04;101865.91;4972608;28;20046;-88
2020/12/29 05:00:27;;;;;;;;;;;;;;;0.47;80.47;101854.13;4974050;28;20033;-89
2020/12/29 05:02:54;;;;;;;165.73;81.72;;;;;;;-0.45;80.07;101700.72;4973332;28;19920;-88
2020/12/29 05:05:25;;;;;;;149.02;83.03;;;;;;;0.43;80.11;101828.19;5005783;28;20110;-88
2020/12/29 05:07:51;;;;;;;164.23;79.20;;;;;;;0.68;79.20;101838.31;4972225;28;20494;-88
2020/12/29 05:10:19;;;;;;;154.00;79.57;;;;;;;0.71;77.82;101776.28;4973548;28;20031;-85
2020/12/29 05:12:55;;;;;;;154.20;75.10;;;;;;;0.81;77.31;101782.47;4986133;28;20030;-85
2020/12/29 05:15:22;;;;;;;145.80;75.75;;;;;;;0.56;75.06;101751.47;5006975;28;20938;-85
2020/12/29 05:17:49;;;;;;;145.73;76.82;;;;;;;-0.61;76.10;101597.16;4989328;28;20134;-88
2020/12/29 05:20:19;;;;;;;148.27;72.07;;;;;;;0.03;74.88;101716.81;5002388;28;20038;-85
2020/12/29 05:22:46;;;;;;;;;;;;;;;0.46;75.13;101793.28;4992984;28;20061;-87
2020/12/29 05:25:17;;;;;;;145.95;72.22;;;;;;;-0.77;75.84;101616.88;4994385;28;19941;-86
2020/12/29 05:27:45;;;;;;;136.07;67.05;;;;;;;-0.23;75.34;101673.19;4991716;28;20031;-85
2020/12/29 05:30:12;;;;;;;129.90;66.75;;;;;;;0.75;74.91;101796.75;4988154;28;20096;-82
2020/12/29 05:32:39;;;;;;;116.43;55.42;;;;;;;0.10;76.06;101731.53;4992954;28;20026;-83
2020/12/29 05:35:13;;;;;;;126.40;65.90;;;;;;;-1.12;76.15;101567.75;5009887;28;20094;-82
2020/12/29 05:37:43;;;;;;;131.85;66.70;;;;;;;0.57;74.74;101810.41;5009937;28;20057;-88
2020/12/29 05:40:30;;;;;;;120.00;65.53;;;;;;;-0.70;74.13;101615.28;4994686;28;20003;-87
2020/12/29 05:42:59;;;;;;;109.82;59.75;;;;;;;0.44;73.21;101810.81;4993539;28;20114;-87
2020/12/29 05:45:32;;;;;;;128.60;62.10;;;;;;;-0.32;73.61;101699.47;4989285;28;20051;-87
2020/12/29 05:48:00;;;;;;;120.72;59.47;;;;;;;0.36;73.64;101796.09;4974382;28;20053;-83
2020/12/29 05:50:28;;;;;;;130.23;64.25;;;;;;;-0.34;73.87;101702.38;4978919;28;20034;-86
2020/12/29 05:53:06;;;;;;;125.72;66.10;;;;;;;-0.30;72.46;101648.47;5012414;28;20034;-86
2020/12/29 05:55:34;;;;;;;121.80;65.88;;;;;;;-0.69;73.21;101685.81;4979482;28;20037;-83
2020/12/29 05:58:09;;;;;;;125.30;67.13;;;;;;;-1.48;72.22;101524.19;5009185;28;20054;-83
2020/12/29 06:00:40;;;;;;;128.65;58.72;;;;;;;-0.75;71.57;101607.56;4989366;28;20083;-84
2020/12/29 06:03:08;;;;;;;123.70;64.43;;;;;;;-1.20;72.11;101537.75;5022416;28;20057;-86
2020/12/29 06:05:37;;;;;;;117.85;63.05;;;;;;;-0.18;71.27;101643.66;4980173;28;20066;-88
2020/12/29 06:08:08;;;;;;;132.20;67.57;;;;;;;-0.59;71.66;101615.03;5013846;28;20051;-85
2020/12/29 06:10:36;;;;;;;119.88;66.45;;;;;;;-0.29;71.99;101633.84;5015493;28;20031;-86
2020/12/29 06:13:06;;;;;;;132.57;72.03;;;;;;;0.71;71.59;101779.03;5008607;28;20039;-87
2020/12/29 06:15:34;;;;;;;;;;;;;;;0.66;71.32;101752.25;5017563;28;20034;-85
2020/12/29 06:18:09;;;;;;;130.27;68.50;;;;;;;-0.78;71.82;101577.13;5022053;28;19914;-84
2020/12/29 06:20:39;;;;;;;134.63;73.65;;;;;;;-0.62;71.90;101633.53;4992763;28;20033;-86
2020/12/29 06:23:07;;;;;;;145.18;72.22;;;;;;;-0.74;71.70;101589.38;4992421;28;20043;-85
2020/12/29 06:25:37;;;;;;;133.07;67.80;;;;;;;0.59;71.24;101781.16;5012238;28;20051;-88
2020/12/29 06:28:07;;;;;;;131.90;65.68;;;;;;;-0.15;71.30;101674.13;4971422;28;20027;-88
2020/12/29 06:30:35;;;;;;;136.77;69.78;;;;;;;0.12;70.90;101702.25;5003852;28;20030;-87
2020/12/29 06:33:04;;;;;;;134.57;72.15;;;;;;;0.34;71.00;101765.44;4972560;28;20100;-88
2020/12/29 06:35:30;;;;;;;128.85;68.20;;;;;;;0.32;69.85;101712.13;4970846;28;20055;-87
2020/12/29 06:38:04;;;;;;;122.72;66.93;;;;;;;0.23;68.94;101635.78;4972354;28;20056;-87
2020/12/29 06:40:32;;;;;;;125.10;69.13;;;;;;;-0.10;69.92;101653.75;5003773;28;20027;-87
2020/12/29 06:42:59;;;;;;;126.78;66.00;;;;;;;-0.27;70.24;101626.38;4971175;28;20030;-87
2020/12/29 06:45:33;;;;;;;140.73;66.72;;;;;;;0.28;70.47;101721.63;4987904;28;20027;-87
2020/12/29 06:48:01;;;;;;;122.57;67.32;;;;;;;0.03;71.74;101708.66;4970950;28;20035;-88
2020/12/29 06:50:30;;;;;;;121.97;62.08;;;;;;;-0.08;69.76;101630.78;4970646;28;20444;-87
2020/12/29 06:53:02;;;;;;;113.10;64.72;;;;;;;-0.11;68.96;101654.75;4971933;28;20030;-87
2020/12/29 06:55:31;;;;;;;121.40;62.25;;;;;;;-0.88;68.91;101647.88;4970639;28;20041;-90
2020/12/29 06:57:57;;;;;;;118.90;64.65;;;;;;;0.51;67.89;101828.25;4970546;28;20065;-89
2020/12/29 07:00:25;;;;;;;120.75;61.03;;;;;;;0.48;68.07;101810.34;4986654;28;20070;-89
2020/12/29 07:02:56;;;;;;;119.03;62.55;;;;;;;-0.39;66.63;101669.31;4972242;28;20062;-87
2020/12/29 07:05:27;;;;;;;108.38;56.40;;;;;;;0.47;66.21;101807.78;4972916;28;20030;-88
2020/12/29 07:08:08;;;;;;;104.45;55.10;;;;;;;0.28;65.85;101774.22;4971533;28;20403;-88
2020/12/29 07:10:46;;;;;;;101.13;52.13;;;;;;;0.51;65.64;101814.63;4975879;28;20035;-88
2020/12/29 07:13:21;;;;;;;116.90;58.75;;;;;;;-0.11;66.20;101772.69;4974739;28;20049;-89
2020/12/29 07:15:56;;;;;;;101.75;52.85;;;;;;;-2.08;66.45;101497.28;4975311;28;20023;-87
2020/12/29 07:18:27;;;;;;;106.13;54.17;;;;;;;-1.40;67.76;101630.22;4978518;28;20022;-88
2020/12/29 07:20:56;;;;;;;111.13;57.42;;;;;;;-0.24;66.88;101761.31;4975542;28;20510;-89
2020/12/29 07:23:28;;;;;;;111.75;63.63;;;;;;;-0.98;66.06;101597.13;4974481;28;20059;-86
2020/12/29 07:25:59;;;;;;;130.15;65.10;;;;;;;-0.89;67.68;101673.34;4975292;28;20550;-89
2020/12/29 07:28:30;;;;;;;112.57;59.22;;;;;;;0.40;66.41;101821.16;4976000;28;20038;-87
2020/12/29 07:30:57;;;;;;;121.43;63.10;;;;;;;-1.08;67.47;101634.38;4974625;28;20030;-88
2020/12/29 07:33:25;;;;;;;123.63;62.90;;;;;;;-1.74;67.23;101508.59;4976269;28;20065;-88
2020/12/29 07:35:53;;;;;;;121.47;62.55;;;;;;;-1.73;66.24;101562.75;4974422;28;20089;-88
2020/12/29 07:38:23;;;;;;;109.78;57.60;;;;;;;-0.16;65.42;101846.63;5007689;28;20555;-89
2020/12/29 07:40:50;;;;;;;117.93;64.38;;;;;;;-0.74;65.52;101772.47;4977789;28;20031;-88
2020/12/29 07:43:17;;;;;;;112.57;58.70;;;;;;;-0.46;64.29;101772.44;4976467;28;20113;-88
2020/12/29 07:45:45;;;;;;;113.70;59.13;;;;;;;-0.21;64.12;101756.41;4976090;28;20058;-89
2020/12/29 07:48:11;;;;;;;113.78;57.60;;;;;;;-1.44;63.26;101591.66;4974423;28;20535;-88
2020/12/29 07:50:41;;;;;;;115.97;57.45;;;;;;;0.07;63.60;101861.69;4974735;28;20081;-89
2020/12/29 07:53:14;;;;;;;106.13;57.00;;;;;;;-0.86;64.63;101776.38;4973914;28;20423;-88
2020/12/29 07:55:46;;;;;;;106.70;55.83;;;;;;;-0.29;64.03;101846.16;4974094;28;20038;-89
2020/12/29 07:58:13;;;;;;;106.32;55.47;;;;;;;-1.12;63.15;101687.34;4973615;28;20076;-90
2020/12/29 08:00:40;;;;;;;114.00;57.08;;;;;;;-0.52;62.98;101791.25;4973052;28;20035;-90
2020/12/29 08:03:09;;;;;;;112.65;58.42;;;;;;;-0.98;62.80;101732.19;4973596;28;20039;-88
2020/12/29 08:05:36;;;;;;;112.68;59.03;;;;;;;-0.40;63.03;101813.66;4975033;28;20114;-88
2020/12/29 08:08:17;;;;;;;111.82;58.28;;;;;;;-0.35;63.45;101835.84;4976130;28;20058;-89
2020/12/29 08:10:47;;;;;;;105.45;54.25;;;;;;;-0.16;62.72;101813.97;4975606;28;20034;-87
2020/12/29 08:13:21;;;;;;;85.40;41.85;;;;;;;-0.66;61.46;101692.81;4974024;28;20035;-89
2020/12/29 08:15:54;;;;;;;106.72;56.40;;;;;;;-0.44;62.29;101772.31;4974704;28;20063;-89
2020/12/29 08:18:23;;;;;;;100.38;52.67;;;;;;;-0.83;62.37;101708.09;4975779;28;20034;-88
2020/12/29 08:20:57;;;;;;;115.82;59.38;;;;;;;-1.81;62.85;101596.06;4990204;28;20031;-89
2020/12/29 08:23:29;;;;;;;98.43;52.88;;;;;;;-0.16;62.08;101792.19;5005497;28;20130;-89
2020/12/29 08:26:00;;;;;;;102.18;51.47;;;;;;;-0.99;61.74;101660.69;4973101;28;20041;-89
2020/12/29 08:28:30;;;;;;;102.65;52.88;;;;;;;-0.21;61.61;101789.09;4972893;28;20065;-88
2020/12/29 08:31:01;;;;;;;100.38;50.83;;;;;;;-0.59;61.68;101736.59;4972699;28;20403;-88
2020/12/29 08:33:30;;;;;;;108.00;56.92;;;;;;;-0.97;61.82;101666.81;5005083;28;20097;-88
2020/12/29 08:36:01;;;;;;;103.65;53.53;;;;;;;0.02;61.36;101793.22;4972891;28;20062;-88
2020/12/29 08:38:30;;;;;;;102.30;50.70;;;;;;;-0.15;61.39;101790.31;4974321;28;20118;-88
2020/12/29 08:41:06;;;;;;;105.95;56.72;;;;;;;-0.12;61.89;101797.34;4992211;28;20027;-88
2020/12/29 08:43:44;;;;;;;103.85;51.70;;;;;;;-1.03;61.47;101669.25;4988676;28;20031;-88
2020/12/29 08:46:12;;;;;;;110.35;52.05;;;;;;;-0.79;61.26;101720.38;4972323;28;20492;-89
2020/12/29 08:48:41;;;;;;;97.28;51.60;;;;;;;-0.25;61.39;101814.88;4972294;28;20027;-88
2020/12/29 08:51:22;;;;;;;108.97;53.03;;;;;;;-0.15;61.01;101821.13;4972491;28;20033;-87
2020/12/29 08:53:48;;;;;;;105.60;51.72;;;;;;;-0.97;60.56;101747.50;4972360;28;20392;-90
2020/12/29 08:56:25;;;;;;;102.47;55.47;;;;;;;-0.35;61.17;101844.03;5004462;28;20053;-88
2020/12/29 08:58:54;;;;;;;86.20;46.50;;;;;;;-0.66;60.56;101800.78;4973261;28;20447;-89
2020/12/29 09:01:31;;;;;;;81.63;42.63;;;;;;;-1.10;57.94;101736.97;5004898;28;20448;-89
2020/12/29 09:04:19;;;;;;;59.97;31.90;;;;;;;-1.54;55.81;101780.97;5006012;28;20027;-84
2020/12/29 09:06:46;;;;;;;54.45;28.05;;;;;;;-1.98;54.26;101653.81;4986808;28;20035;-85
2020/12/29 09:09:13;;;;;;;51.60;26.33;;;;;;;-1.55;53.24;101773.81;4972563;28;20015;-89
2020/12/29 09:11:41;;;;;;;51.08;22.88;;;;;;;-0.80;53.98;101887.28;5001249;28;20035;-86
2020/12/29 09:14:08;;;;;;;47.45;20.73;;;;;;;-2.15;53.89;101696.13;4978915;28;20122;-88
2020/12/29 09:16:35;;;;;;;50.50;21.52;;;;;;;-2.28;51.98;101688.25;4973319;28;20066;-89
2020/12/29 09:19:13;;;;;;;36.78;20.52;;;;;;;-1.97;51.41;101731.53;4972615;28;20388;-88
2020/12/29 09:21:51;;;;;;;24.73;16.08;;;;;;;-1.77;50.30;101774.97;4974976;28;20141;-85
2020/12/29 09:24:25;;;;;;;32.30;17.73;;;;;;;-1.37;51.47;101871.72;4988346;28;20034;-82
2020/12/29 09:26:52;;;;;;;37.67;18.27;;;;;;;-2.15;53.21;101769.38;4994084;28;20109;-84
2020/12/29 09:29:21;;;;;;;42.38;18.60;;;;;;;-1.50;53.42;101823.13;4989323;28;20507;-86
2020/12/29 09:31:55;;;;;;;40.67;18.58;;;;;;;-2.42;55.36;101744.63;4975489;28;20030;-88
2020/12/29 09:34:22;;;;;;;39.70;18.40;;;;;;;-0.83;54.77;101890.28;4988723;28;20026;-89
2020/12/29 09:37:08;;;;;;;25.52;13.65;;;;;;;-2.04;55.95;101768.41;4979434;28;20090;-88
2020/12/29 09:39:43;;;;;;;35.30;17.02;;;;;;;-1.86;57.45;101823.69;4994144;28;20030;-87
2020/12/29 09:42:11;;;;;;;44.03;19.48;;;;;;;-1.75;57.52;101879.72;4983133;28;20041;-87
2020/12/29 09:44:39;;;;;;;37.30;18.95;;;;;;;-1.37;58.30;101928.78;4980621;28;20058;-88
2020/12/29 09:47:07;;;;;;;35.15;17.38;;;;;;;-2.04;57.92;101818.09;4983682;28;20117;-89
2020/12/29 09:49:34;;;;;;;33.33;17.10;;;;;;;-2.28;56.35;101794.03;4982020;28;20037;-83
2020/12/29 09:52:03;;;;;;;33.75;15.30;;;;;;;-1.50;55.45;101917.34;5007733;28;20038;-84
2020/12/29 09:54:30;;;;;;;43.50;17.25;;;;;;;-2.29;56.13;101844.75;4991722;28;20087;-89
2020/12/29 09:56:57;;;;;;;35.45;16.90;;;;;;;-1.69;54.41;101860.16;4996579;28;20022;-89
2020/12/29 09:59:24;;;;;;;37.13;16.67;;;;;;;-1.81;53.24;101938.16;4991252;28;20058;-83
2020/12/29 10:01:53;;;;;;;26.88;13.73;;;;;;;-3.33;52.82;101620.84;4991817;28;20022;-86
2020/12/29 10:04:25;;;;;;;30.38;15.50;;;;;;;-2.25;53.74;101858.91;4992662;28;20034;-83
2020/12/29 10:06:51;;;;;;;29.60;13.95;;;;;;;-2.38;53.94;101841.00;4994281;28;20102;-83
2020/12/29 10:09:21;;;;;;;33.10;17.35;;;;;;;-4.82;54.72;101434.41;4993338;28;20011;-83
2020/12/29 10:11:55;;;;;;;34.72;15.38;;;;;;;-4.40;55.37;101506.53;4993095;28;20046;-84
2020/12/29 10:14:24;;;;;;;41.00;18.02;;;;;;;-3.91;55.10;101600.63;4992846;28;20039;-83
2020/12/29 10:16:59;;;;;;;30.80;15.65;;;;;;;-2.02;52.95;101880.38;4992994;28;20027;-86
2020/12/29 10:19:43;;;;;;;38.05;15.48;;;;;;;-4.30;52.38;101510.13;4994735;28;20030;-85
2020/12/29 10:22:14;;;;;;;35.67;16.05;;;;;;;-5.00;52.61;101409.84;5023847;28;20045;-86
2020/12/29 10:24:51;;;;;;;34.83;14.93;;;;;;;-3.92;52.30;101598.91;4994989;28;20027;-85
2020/12/29 10:27:21;;;;;;;27.92;15.75;;;;;;;-1.94;51.55;101859.69;4991850;28;20027;-84
2020/12/29 10:29:51;;;;;;;31.23;15.50;;;;;;;-2.55;51.78;101800.97;4977795;28;20061;-83
2020/12/29 10:32:24;;;;;;;28.52;13.80;;;;;;;-2.77;50.80;101754.97;4991378;28;20035;-83
2020/12/29 10:34:55;;;;;;;33.92;14.15;;;;;;;-4.15;51.90;101531.44;5008723;28;20007;-85
2020/12/29 10:37:27;;;;;;;26.33;14.77;;;;;;;-4.35;53.10;101574.56;4992819;28;20039;-84
2020/12/29 10:39:58;;;;;;;41.17;14.35;;;;;;;-4.17;52.98;101574.81;4990217;28;20034;-83
2020/12/29 10:42:26;;;;;;;;;;;;;;;-2.54;54.30;101855.09;4990251;28;20051;-84
2020/12/29 10:45:17;;;;;;;34.47;11.57;;;;;;;-3.66;55.64;101723.84;4996442;28;19926;-84
2020/12/29 10:47:44;;;;;;;36.85;16.83;;;;;;;-2.77;56.18;101862.53;4996008;28;20103;-84
2020/12/29 10:50:22;;;;;;;44.10;16.73;;;;;;;-3.50;55.22;101690.88;4991848;28;20034;-84
2020/12/29 10:52:55;;;;;;;34.97;18.33;;;;;;;-3.64;56.42;101745.38;4987527;28;20091;-84
2020/12/29 10:55:27;;;;;;;47.63;18.85;;;;;;;-2.52;56.09;101884.75;4994923;28;20042;-85
2020/12/29 10:57:54;;;;;;;42.20;18.40;;;;;;;-5.21;54.96;101451.19;5027917;28;20058;-83
2020/12/29 11:00:21;;;;;;;39.90;17.00;;;;;;;-4.46;55.17;101558.41;4977834;28;20510;-83
2020/12/29 11:02:48;;;;;;;46.03;18.45;;;;;;;-5.55;55.98;101421.59;4993445;28;20082;-84
2020/12/29 11:05:17;;;;;;;27.98;14.00;;;;;;;-4.31;56.94;101683.31;4993424;28;20035;-83
2020/12/29 11:07:46;;;;;;;49.80;20.58;;;;;;;-5.14;57.12;101571.19;5021472;28;20094;-82
2020/12/29 11:10:16;;;;;;;46.40;19.13;;;;;;;-5.11;56.17;101543.09;4972060;28;20037;-84
2020/12/29 11:12:50;;;;;;;53.60;19.58;;;;;;;-4.91;54.59;101533.31;4989438;28;20041;-82
2020/12/29 11:15:17;;;;;;;52.47;20.77;;;;;;;-3.57;54.77;101743.81;4994095;28;20038;-84
2020/12/29 11:17:44;;;;;;;43.25;15.10;;;;;;;-3.79;52.74;101721.34;4992951;28;20072;-82
2020/12/29 11:20:16;;;;;;;37.60;17.10;;;;;;;-3.18;53.13;101857.88;4989830;28;20031;-83